createdAt,value
2022-09-02T00:01:38.496Z,11.62
2022-09-02T00:04:12.712Z,11.59
2022-09-02T00:06:42.056Z,11.56
2022-09-02T00:09:11.496Z,11.58
2022-09-02T00:11:40.916Z,11.57
2022-09-02T00:14:13.352Z,11.56
2022-09-02T00:16:41.991Z,11.58
2022-09-02T00:19:11.169Z,11.55
2022-09-02T00:21:39.080Z,11.52
2022-09-02T00:24:07.693Z,11.47
2022-09-02T00:26:35.341Z,11.47
2022-09-02T00:29:02.908Z,11.45
2022-09-02T00:31:30.704Z,11.44
2022-09-02T00:33:58.425Z,11.43
2022-09-02T00:36:26.879Z,11.43
2022-09-02T00:38:54.634Z,11.44
2022-09-02T00:41:25.458Z,11.40
2022-09-02T00:44:03.711Z,11.35
2022-09-02T00:46:33.055Z,11.35
2022-09-02T00:49:24.220Z,11.37
2022-09-02T00:51:57.470Z,11.35
2022-09-02T00:54:29.860Z,11.33
2022-09-02T00:56:58.222Z,11.31
2022-09-02T00:59:38.502Z,11.28
2022-09-02T01:02:08.143Z,11.26
2022-09-02T01:04:36.009Z,11.23
2022-09-02T01:07:04.593Z,11.20
2022-09-02T01:09:33.583Z,11.20
2022-09-02T01:12:03.547Z,11.21
2022-09-02T01:14:31.285Z,11.21
2022-09-02T01:17:00.799Z,11.21
2022-09-02T01:19:50.911Z,11.17
2022-09-02T01:22:23.006Z,11.18
2022-09-02T01:24:51.357Z,11.16
2022-09-02T01:27:21.929Z,11.14
2022-09-02T01:29:54.813Z,11.17
2022-09-02T01:32:23.318Z,11.18
2022-09-02T01:34:51.482Z,11.15
2022-09-02T01:37:19.125Z,11.15
2022-09-02T01:39:47.238Z,11.12
2022-09-02T01:42:16.137Z,11.13
2022-09-02T01:44:46.880Z,11.15
2022-09-02T01:47:21.605Z,11.17
2022-09-02T01:49:50.359Z,11.15
2022-09-02T01:52:19.969Z,11.11
2022-09-02T01:54:48.478Z,11.11
2022-09-02T01:57:16.001Z,11.10
2022-09-02T01:59:44.766Z,11.06
2022-09-02T02:02:13.171Z,11.05
2022-09-02T02:04:42.240Z,11.07
2022-09-02T02:07:09.705Z,11.05
2022-09-02T02:09:37.298Z,11.01
2022-09-02T02:12:06.292Z,11.01
2022-09-02T02:14:34.263Z,10.99
2022-09-02T02:17:02.455Z,10.94
2022-09-02T02:19:30.265Z,10.95
2022-09-02T02:21:59.189Z,10.93
2022-09-02T02:24:26.835Z,10.91
2022-09-02T02:26:54.463Z,10.91
2022-09-02T02:29:23.145Z,10.89
2022-09-02T02:31:51.242Z,10.87
2022-09-02T02:34:18.892Z,10.85
2022-09-02T02:36:47.012Z,10.86
2022-09-02T02:39:14.583Z,10.84
2022-09-02T02:41:44.663Z,10.83
2022-09-02T02:44:12.624Z,10.83
2022-09-02T02:46:40.339Z,10.82
2022-09-02T02:49:08.546Z,10.80
2022-09-02T02:51:36.381Z,10.77
2022-09-02T02:54:05.267Z,10.77
2022-09-02T02:56:33.176Z,10.64
2022-09-02T02:59:03.528Z,10.75
2022-09-02T03:01:32.045Z,10.79
2022-09-02T03:04:00.006Z,10.74
2022-09-02T03:06:27.713Z,10.79
2022-09-02T03:08:55.593Z,10.78
2022-09-02T03:11:23.924Z,10.73
2022-09-02T03:13:51.589Z,10.70
2022-09-02T03:16:20.116Z,10.69
2022-09-02T03:18:49.641Z,10.71
2022-09-02T03:21:18.257Z,10.70
2022-09-02T03:23:46.968Z,10.68
2022-09-02T03:26:19.060Z,10.74
2022-09-02T03:28:48.645Z,10.70
2022-09-02T03:31:21.054Z,10.65
2022-09-02T03:33:48.927Z,10.65
2022-09-02T03:36:24.685Z,10.63
2022-09-02T03:38:53.573Z,10.63
2022-09-02T03:41:21.417Z,10.63
2022-09-02T03:43:49.579Z,10.61
2022-09-02T03:46:18.764Z,10.60
2022-09-02T03:48:47.207Z,10.62
2022-09-02T03:51:15.211Z,10.61
2022-09-02T03:53:42.891Z,10.63
2022-09-02T03:56:13.227Z,10.64
2022-09-02T03:58:42.411Z,10.65
2022-09-02T04:01:18.762Z,10.64
2022-09-02T04:03:47.727Z,10.63
2022-09-02T04:06:16.483Z,10.63
2022-09-02T04:08:45.164Z,10.65
2022-09-02T04:11:19.274Z,10.63
2022-09-02T04:13:48.170Z,10.62
2022-09-02T04:16:19.418Z,10.63
2022-09-02T04:18:47.663Z,10.67
2022-09-02T04:21:16.091Z,10.68
2022-09-02T04:23:43.634Z,10.68
2022-09-02T04:26:14.931Z,10.68
2022-09-02T04:28:42.988Z,10.64
2022-09-02T04:31:13.724Z,10.65
2022-09-02T04:33:41.545Z,10.65
2022-09-02T04:36:12.877Z,10.68
2022-09-02T04:38:42.932Z,10.65
2022-09-02T04:41:14.143Z,10.66
2022-09-02T04:43:42.208Z,10.67
2022-09-02T04:46:12.442Z,10.71
2022-09-02T04:48:40.119Z,10.79
2022-09-02T04:51:16.666Z,10.79
2022-09-02T04:53:45.318Z,10.76
2022-09-02T04:56:15.993Z,10.78
2022-09-02T04:58:45.115Z,10.85
2022-09-02T05:01:15.380Z,10.82
2022-09-02T05:03:44.935Z,10.74
2022-09-02T05:06:16.536Z,10.79
2022-09-02T05:08:48.079Z,10.80
2022-09-02T05:11:19.806Z,10.86
2022-09-02T05:13:51.683Z,10.88
2022-09-02T05:16:22.818Z,11.01
2022-09-02T05:18:52.427Z,11.28
2022-09-02T05:21:20.645Z,11.14
2022-09-02T05:23:48.411Z,11.05
2022-09-02T05:26:16.153Z,11.23
2022-09-02T05:28:43.925Z,11.55
2022-09-02T05:31:18.004Z,11.44
2022-09-02T05:33:46.095Z,11.26
2022-09-02T05:36:20.563Z,11.10
2022-09-02T05:38:49.038Z,10.99
2022-09-02T05:41:23.149Z,10.96
2022-09-02T05:43:57.462Z,11.46
2022-09-02T05:46:29.492Z,12.02
2022-09-02T05:49:08.932Z,11.86
2022-09-02T05:51:44.159Z,12.42
2022-09-02T05:54:21.253Z,12.73
2022-09-02T05:56:52.123Z,12.96
2022-09-02T05:59:21.133Z,13.18
2022-09-02T06:01:50.118Z,13.34
2022-09-02T06:04:18.349Z,13.06
2022-09-02T06:06:46.681Z,12.99
2022-09-02T06:09:17.638Z,13.16
2022-09-02T06:11:49.474Z,13.41
2022-09-02T06:14:22.320Z,13.31
2022-09-02T06:16:53.854Z,12.97
2022-09-02T06:19:25.310Z,12.65
2022-09-02T06:21:54.338Z,13.12
2022-09-02T06:24:21.864Z,13.23
2022-09-02T06:26:49.553Z,12.95
2022-09-02T06:29:17.234Z,13.21
2022-09-02T06:31:47.173Z,13.78
2022-09-02T06:34:16.439Z,13.97
2022-09-02T06:36:47.547Z,14.00
2022-09-02T06:39:20.293Z,14.04
2022-09-02T06:41:49.129Z,13.62
2022-09-02T06:44:17.554Z,13.50
2022-09-02T06:46:48.499Z,14.54
2022-09-02T06:49:19.448Z,15.66
2022-09-02T06:51:49.275Z,15.39
2022-09-02T06:54:19.783Z,14.80
2022-09-02T06:56:49.812Z,15.91
2022-09-02T06:59:19.927Z,18.11
2022-09-02T07:01:48.887Z,18.37
2022-09-02T07:04:36.126Z,18.54
2022-09-02T07:07:07.032Z,18.65
2022-09-02T07:09:34.689Z,18.76
2022-09-02T07:12:05.337Z,18.73
2022-09-02T07:14:42.285Z,19.10
2022-09-02T07:17:12.982Z,19.55
2022-09-02T07:19:40.947Z,20.48
2022-09-02T07:22:08.584Z,20.83
2022-09-02T07:24:37.381Z,20.17
2022-09-02T07:27:06.016Z,20.04
2022-09-02T07:29:34.715Z,19.69
2022-09-02T07:32:02.356Z,19.74
2022-09-02T07:34:30.444Z,19.21
2022-09-02T07:37:03.300Z,20.02
2022-09-02T07:39:33.591Z,20.07
2022-09-02T07:42:02.013Z,19.13
2022-09-02T07:44:29.543Z,19.57
2022-09-02T07:46:57.430Z,20.30
2022-09-02T07:49:25.989Z,20.47
2022-09-02T07:51:53.789Z,20.63
2022-09-02T07:54:24.958Z,20.67
2022-09-02T07:56:53.487Z,20.89
2022-09-02T07:59:21.921Z,21.11
2022-09-02T08:01:49.820Z,20.08
2022-09-02T08:04:19.469Z,19.41
2022-09-02T08:06:47.567Z,18.56
2022-09-02T08:09:15.344Z,19.75
2022-09-02T08:11:46.635Z,20.32
2022-09-02T08:14:19.511Z,20.40
2022-09-02T08:16:47.747Z,20.73
2022-09-02T08:19:16.073Z,20.55
2022-09-02T08:21:44.369Z,20.17
2022-09-02T08:24:12.551Z,19.39
2022-09-02T08:26:40.528Z,19.17
2022-09-02T08:29:09.700Z,18.77
2022-09-02T08:31:38.715Z,18.42
2022-09-02T08:34:06.395Z,18.16
2022-09-02T08:36:34.314Z,17.85
2022-09-02T08:39:04.179Z,17.61
2022-09-02T08:41:42.129Z,17.41
2022-09-02T08:44:12.978Z,17.26
2022-09-02T08:46:41.013Z,17.46
2022-09-02T08:49:17.143Z,17.61
2022-09-02T08:51:51.058Z,17.51
2022-09-02T08:54:23.212Z,16.94
2022-09-02T08:56:52.709Z,16.75
2022-09-02T08:59:26.676Z,16.83
2022-09-02T09:02:22.669Z,16.62
2022-09-02T09:05:16.481Z,16.51
2022-09-02T09:08:05.027Z,16.28
2022-09-02T09:11:00.985Z,16.17
2022-09-02T09:13:54.843Z,16.14
2022-09-02T09:16:22.280Z,16.07
2022-09-02T09:18:55.855Z,16.29
2022-09-02T09:23:55.363Z,16.08
2022-09-02T09:26:29.170Z,16.06
2022-09-02T09:28:59.418Z,16.09
2022-09-02T09:31:32.548Z,15.97
2022-09-02T09:34:06.550Z,15.81
2022-09-02T09:36:54.499Z,15.75
2022-09-02T09:39:26.960Z,15.72
2022-09-02T09:41:57.802Z,15.60
2022-09-02T09:44:46.339Z,15.40
2022-09-02T09:47:18.101Z,15.45
2022-09-02T09:49:48.214Z,15.44
2022-09-02T09:52:29.483Z,15.40
2022-09-02T09:55:19.084Z,15.35
2022-09-02T09:57:54.135Z,15.33
2022-09-02T10:00:27.084Z,15.32
2022-09-02T10:03:01.564Z,15.44
2022-09-02T10:05:38.540Z,15.28
2022-09-02T10:08:20.954Z,15.19
2022-09-02T10:11:08.494Z,15.20
2022-09-02T10:13:38.095Z,15.21
2022-09-02T10:16:19.610Z,15.24
2022-09-02T10:19:16.956Z,15.21
2022-09-02T10:22:17.924Z,15.11
2022-09-02T10:24:51.766Z,15.15
2022-09-02T10:27:29.935Z,15.14
2022-09-02T10:30:13.465Z,15.09
2022-09-02T10:32:59.633Z,15.10
2022-09-02T10:36:24.712Z,14.99
2022-09-02T10:38:53.592Z,15.07
2022-09-02T10:41:37.709Z,15.03
2022-09-02T10:44:25.896Z,15.05
2022-09-02T10:47:16.240Z,15.02
2022-09-02T10:49:46.601Z,14.99
2022-09-02T10:54:56.504Z,14.99
2022-09-02T10:57:30.292Z,14.95
2022-09-02T11:00:10.498Z,14.93
2022-09-02T11:02:41.830Z,14.98
2022-09-02T11:05:18.048Z,15.01
2022-09-02T11:08:13.184Z,14.95
2022-09-02T11:10:53.339Z,14.97
2022-09-02T11:13:31.129Z,15.03
2022-09-02T11:16:17.078Z,14.95
2022-09-02T11:18:56.221Z,14.85
2022-09-02T11:21:54.946Z,14.94
2022-09-02T11:24:40.353Z,14.97
2022-09-02T11:27:42.419Z,14.90
2022-09-02T11:30:18.440Z,14.89
2022-09-02T11:33:12.914Z,14.82
2022-09-02T11:35:42.654Z,14.78
2022-09-02T11:38:16.246Z,14.79
2022-09-02T11:41:36.061Z,14.81
2022-09-02T11:44:41.607Z,14.80
2022-09-02T11:47:26.071Z,14.77
2022-09-02T11:50:38.766Z,14.77
2022-09-02T11:53:19.174Z,14.77
2022-09-02T11:55:56.443Z,14.72
2022-09-02T11:58:53.166Z,14.74
2022-09-02T12:01:43.670Z,14.74
2022-09-02T12:07:13.949Z,14.67
2022-09-02T12:09:52.849Z,14.68
2022-09-02T12:12:41.600Z,14.68
2022-09-02T12:15:16.988Z,14.62
2022-09-02T12:18:12.622Z,14.69
2022-09-02T12:20:41.611Z,14.67
2022-09-02T12:23:11.039Z,14.66
2022-09-02T12:25:49.691Z,14.69
2022-09-02T12:28:27.806Z,14.70
2022-09-02T12:30:55.986Z,14.72
2022-09-02T12:33:34.838Z,14.73
2022-09-02T12:36:05.658Z,14.69
2022-09-02T12:38:40.943Z,14.59
2022-09-02T12:41:22.143Z,14.56
2022-09-02T12:43:56.748Z,14.58
2022-09-02T12:46:30.976Z,14.65
2022-09-02T12:49:12.220Z,14.62
2022-09-02T12:51:57.261Z,14.58
2022-09-02T12:54:35.286Z,14.50
2022-09-02T12:57:04.381Z,14.50
2022-09-02T12:59:38.249Z,14.53
2022-09-02T13:02:19.664Z,14.53
2022-09-02T13:04:50.168Z,14.53
2022-09-02T13:07:46.676Z,14.56
2022-09-02T13:10:41.973Z,14.56
2022-09-02T13:13:48.165Z,14.55
2022-09-02T13:16:42.165Z,14.52
2022-09-02T13:19:37.610Z,14.51
2022-09-02T13:22:24.014Z,14.53
2022-09-02T13:25:22.659Z,14.51
2022-09-02T13:27:59.205Z,14.49
2022-09-02T13:30:56.739Z,14.47
2022-09-02T13:33:26.978Z,14.45
2022-09-02T13:35:58.684Z,14.38
2022-09-02T13:38:28.989Z,14.39
2022-09-02T13:40:56.690Z,14.34
2022-09-02T13:43:27.120Z,14.38
2022-09-02T13:46:00.841Z,14.40
2022-09-02T13:48:32.979Z,14.39
2022-09-02T13:51:17.722Z,14.39
2022-09-02T13:54:18.929Z,14.34
2022-09-02T13:56:37.212Z,14.36
2022-09-02T13:59:05.048Z,14.38
2022-09-02T14:01:36.118Z,14.39
2022-09-02T14:04:14.402Z,14.38
2022-09-02T14:06:46.639Z,14.38
2022-09-02T14:09:24.479Z,14.35
2022-09-02T14:11:53.927Z,14.33
2022-09-02T14:14:24.357Z,14.30
2022-09-02T14:16:52.801Z,14.24
2022-09-02T14:19:20.452Z,14.30
2022-09-02T14:21:49.675Z,14.30
2022-09-02T14:24:23.366Z,14.26
2022-09-02T14:26:56.144Z,14.15
2022-09-02T14:29:26.696Z,14.10
2022-09-02T14:32:20.676Z,14.08
2022-09-02T14:34:50.118Z,14.06
2022-09-02T14:37:28.635Z,14.03
2022-09-02T14:40:11.947Z,13.99
2022-09-02T14:42:56.603Z,14.00
2022-09-02T14:45:29.825Z,13.93
2022-09-02T14:48:00.903Z,13.90
2022-09-02T14:50:35.249Z,13.97
2022-09-02T14:53:09.155Z,13.93
2022-09-02T14:55:52.757Z,13.88
2022-09-02T14:58:26.968Z,13.93
2022-09-02T15:00:59.075Z,13.97
2022-09-02T15:03:28.937Z,14.00
2022-09-02T15:05:56.931Z,14.00
2022-09-02T15:08:24.971Z,13.98
2022-09-02T15:10:54.884Z,13.97
2022-09-02T15:13:32.805Z,13.94
2022-09-02T15:16:01.947Z,14.00
2022-09-02T15:18:29.860Z,13.95
2022-09-02T15:20:58.031Z,14.00
2022-09-02T15:23:27.302Z,14.01
2022-09-02T15:25:56.311Z,14.01
2022-09-02T15:28:24.231Z,13.99
2022-09-02T15:31:02.211Z,14.01
2022-09-02T15:33:30.472Z,13.99
2022-09-02T15:36:09.526Z,13.99
2022-09-02T15:38:38.034Z,14.04
2022-09-02T15:41:15.987Z,14.04
2022-09-02T15:43:44.881Z,14.13
2022-09-02T15:46:21.420Z,14.19
2022-09-02T15:48:49.921Z,14.28
2022-09-02T15:51:19.742Z,14.36
2022-09-02T15:53:49.308Z,14.40
2022-09-02T15:56:22.236Z,14.43
2022-09-02T15:59:10.548Z,14.52
2022-09-02T16:01:40.800Z,14.48
2022-09-02T16:04:08.572Z,14.40
2022-09-02T16:06:39.516Z,14.34
2022-09-02T16:09:12.292Z,14.24
2022-09-02T16:11:49.107Z,14.13
2022-09-02T16:14:20.529Z,14.01
2022-09-02T16:16:50.794Z,13.90
2022-09-02T16:19:22.712Z,13.86
2022-09-02T16:21:51.836Z,13.82
2022-09-02T16:24:21.459Z,13.82
2022-09-02T16:26:51.020Z,13.80
2022-09-02T16:29:20.021Z,13.91
2022-09-02T16:32:02.152Z,13.89
2022-09-02T16:34:37.126Z,13.91
2022-09-02T16:37:04.917Z,13.88
2022-09-02T16:39:32.652Z,13.88
2022-09-02T16:42:04.262Z,13.88
2022-09-02T16:44:34.060Z,13.81
2022-09-02T16:47:01.692Z,13.72
2022-09-02T16:49:29.528Z,13.72
2022-09-02T16:51:59.366Z,13.72
2022-09-02T16:54:31.341Z,13.72
2022-09-02T16:57:01.472Z,13.60
2022-09-02T16:59:31.602Z,13.64
2022-09-02T17:01:59.532Z,13.66
2022-09-02T17:04:27.471Z,13.58
2022-09-02T17:06:57.205Z,13.53
2022-09-02T17:09:24.690Z,13.53
2022-09-02T17:11:53.827Z,13.48
2022-09-02T17:14:22.255Z,13.49
2022-09-02T17:16:51.322Z,13.44
2022-09-02T17:19:22.976Z,13.33
2022-09-02T17:21:54.710Z,13.36
2022-09-02T17:24:24.929Z,13.38
2022-09-02T17:26:55.983Z,13.35
2022-09-02T17:29:48.457Z,13.27
2022-09-02T17:32:17.606Z,13.21
2022-09-02T17:34:45.259Z,13.28
2022-09-02T17:37:13.009Z,13.29
2022-09-02T17:39:40.868Z,13.33
2022-09-02T17:42:08.844Z,13.32
2022-09-02T17:44:39.567Z,13.42
2022-09-02T17:47:08.730Z,13.41
2022-09-02T17:49:37.758Z,13.39
2022-09-02T17:52:06.923Z,13.34
2022-09-02T17:54:38.397Z,13.33
2022-09-02T17:57:16.502Z,13.31
2022-09-02T18:00:00.537Z,13.35
2022-09-02T18:02:48.742Z,13.35
2022-09-02T18:05:28.933Z,13.30
2022-09-02T18:08:23.245Z,13.28
2022-09-02T18:10:57.725Z,13.34
2022-09-02T18:13:36.289Z,13.28
2022-09-02T18:16:23.540Z,13.31
2022-09-02T18:19:13.064Z,13.37
2022-09-02T18:21:52.408Z,13.31
2022-09-02T18:24:47.456Z,13.27
2022-09-02T18:27:21.191Z,13.26
2022-09-02T18:29:52.821Z,13.25
2022-09-02T18:32:28.486Z,13.06
2022-09-02T18:35:20.573Z,13.14
2022-09-02T18:37:53.994Z,13.09
2022-09-02T18:40:44.349Z,13.04
2022-09-02T18:43:29.965Z,13.04
2022-09-02T18:46:03.075Z,13.04
2022-09-02T18:48:38.828Z,13.02
2022-09-02T18:51:28.638Z,13.03
2022-09-02T18:54:29.153Z,12.99
2022-09-02T18:57:05.259Z,13.01
2022-09-02T18:59:53.264Z,13.00
2022-09-02T19:02:32.538Z,12.92
2022-09-02T19:05:07.249Z,12.95
2022-09-02T19:07:55.371Z,12.94
2022-09-02T19:10:23.805Z,12.92
2022-09-02T19:12:52.061Z,13.02
2022-09-02T19:15:20.490Z,12.92
2022-09-02T19:17:49.633Z,12.87
2022-09-02T19:20:18.428Z,12.85
2022-09-02T19:22:49.400Z,12.74
2022-09-02T19:25:22.816Z,12.67
2022-09-02T19:27:52.414Z,12.58
2022-09-02T19:30:24.818Z,12.57
2022-09-02T19:32:54.424Z,12.57
2022-09-02T19:35:24.556Z,12.44
2022-09-02T19:37:54.080Z,12.39
2022-09-02T19:40:31.092Z,12.39
2022-09-02T19:43:05.350Z,12.34
2022-09-02T19:45:39.067Z,12.33
2022-09-02T19:48:11.318Z,12.33
2022-09-02T19:50:42.340Z,12.33
2022-09-02T19:53:16.299Z,12.28
2022-09-02T19:55:43.861Z,12.32
2022-09-02T19:58:11.450Z,12.26
2022-09-02T20:00:42.471Z,12.25
2022-09-02T20:03:11.913Z,12.14
2022-09-02T20:05:41.257Z,12.13
2022-09-02T20:08:09.237Z,12.16
2022-09-02T20:10:39.185Z,12.14
2022-09-02T20:13:07.037Z,12.05
2022-09-02T20:15:38.645Z,12.06
2022-09-02T20:18:15.336Z,12.01
2022-09-02T20:20:49.832Z,11.99
2022-09-02T20:23:19.719Z,11.91
2022-09-02T20:26:05.525Z,11.99
2022-09-02T20:28:35.973Z,12.06
2022-09-02T20:31:20.592Z,12.00
2022-09-02T20:34:34.995Z,11.97
2022-09-02T20:37:14.286Z,11.89
2022-09-02T20:39:42.228Z,11.83
2022-09-02T20:42:34.333Z,11.88
2022-09-02T20:45:12.822Z,11.80
2022-09-02T20:47:52.510Z,11.72
2022-09-02T20:50:51.984Z,11.80
2022-09-02T20:54:01.143Z,11.84
2022-09-02T20:56:41.657Z,11.85
2022-09-02T20:59:22.130Z,11.94
2022-09-02T21:01:52.747Z,11.81
2022-09-02T21:04:26.030Z,11.92
2022-09-02T21:07:16.426Z,11.93
2022-09-02T21:09:53.404Z,11.93
2022-09-02T21:12:37.292Z,11.91
2022-09-02T21:15:08.120Z,11.99
2022-09-02T21:17:54.076Z,12.00
2022-09-02T21:20:40.737Z,11.96
2022-09-02T21:23:31.621Z,11.87
2022-09-02T21:26:07.727Z,11.88
2022-09-02T21:28:52.883Z,11.83
2022-09-02T21:31:23.218Z,11.79
2022-09-02T21:33:54.662Z,11.68
2022-09-02T21:36:29.671Z,11.76
2022-09-02T21:39:03.244Z,11.75
2022-09-02T21:42:05.977Z,11.76
2022-09-02T21:44:55.860Z,11.66
2022-09-02T21:47:31.727Z,11.68
2022-09-02T21:50:08.637Z,11.77
2022-09-02T21:52:45.013Z,11.77
2022-09-02T21:55:31.398Z,11.79
2022-09-02T21:58:27.478Z,11.77
2022-09-02T22:01:06.648Z,11.89
2022-09-02T22:03:50.821Z,11.85
2022-09-02T22:06:31.777Z,11.79
2022-09-02T22:09:10.932Z,11.87
2022-09-02T22:11:41.470Z,11.90
2022-09-02T22:14:36.174Z,11.78
2022-09-02T22:17:22.812Z,11.80
2022-09-02T22:19:56.553Z,11.80
2022-09-02T22:22:30.488Z,11.81
2022-09-02T22:24:58.134Z,11.81
2022-09-02T22:27:43.690Z,11.79
2022-09-02T22:30:14.580Z,11.73
2022-09-02T22:32:48.771Z,11.78
2022-09-02T22:35:22.979Z,11.78
2022-09-02T22:37:59.368Z,11.76
2022-09-02T22:40:33.559Z,11.59
2022-09-02T22:43:07.386Z,11.64
2022-09-02T22:46:03.434Z,11.62
2022-09-02T22:49:20.364Z,11.64
2022-09-02T22:52:11.726Z,11.61
2022-09-02T22:54:39.281Z,11.65
2022-09-02T22:57:17.546Z,11.53
2022-09-02T23:00:02.043Z,11.60
2022-09-02T23:02:47.385Z,11.57
2022-09-02T23:05:49.274Z,11.56
2022-09-02T23:08:21.894Z,11.56
2022-09-02T23:10:58.811Z,11.66
2022-09-02T23:13:42.614Z,11.69
2022-09-02T23:16:26.425Z,11.79
2022-09-02T23:19:19.680Z,11.80
2022-09-02T23:22:04.833Z,11.80
2022-09-02T23:25:15.653Z,11.82
2022-09-02T23:28:06.895Z,11.81
2022-09-02T23:30:36.650Z,11.86
2022-09-02T23:33:25.497Z,11.88
2022-09-02T23:36:27.393Z,11.89
2022-09-02T23:39:27.883Z,11.85
2022-09-02T23:42:01.212Z,11.80
2022-09-02T23:44:29.784Z,11.76
2022-09-02T23:47:02.803Z,11.78
2022-09-02T23:49:49.232Z,11.75
2022-09-02T23:52:16.862Z,11.70
2022-09-02T23:54:59.258Z,11.68
2022-09-02T23:57:43.199Z,11.64
